x

Point Arguello, Ca (ptgc1) Weather Station

8:00am - Thu 30th Jun 2016 All times are PDT. -7 hours from GMT.

  • Wind
    24mph, 25mph gusts
  • Air Temp 51°f
  • Sea Pressure 1013.6mb
  • Point Arguello, Ca
  • Point Arguello, Ca

More Historic Weather Station data

Upgrade to MSW Pro to gain access to the past 30 days of data for over 8000 Wavebouys and Weather Stations around the globe.

Join Pro

Comparision Forecast

View Surf forecast
   
Thu 06/30 8:00am 24 25 mph 1013.6mb 51f
7:00am 26 28 mph 1013.4mb 51f
6:00am 28 29 mph 1012.8mb 51f
5:00am 29 32 mph 1012.6mb 51f
4:00am 32 36 mph 1012.4mb 51f
3:00am 34 37 mph 1011.9mb 51f
2:00am 34 37 mph 1012mb 51f
1:00am 36 38 mph 1012.3mb 52f
12:00am 33 36 mph 1012.7mb 52f
Wed 06/29 11:00pm 34 36 mph 1013.1mb 52f
10:00pm 37 38 mph 1012.7mb 53f
9:00pm 36 37 mph 1012.9mb 53f
8:00pm 33 36 mph 1012.8mb 53f
7:00pm 36 37 mph 1012.8mb 53f
6:00pm 33 37 mph 1012.9mb 54f
5:00pm 34 37 mph 1013.2mb 54f
4:00pm 32 34 mph 1013.4mb 54f
3:00pm 31 32 mph 1013.9mb 54f
2:00pm 30 31 mph 1014.3mb 54f
1:00pm 30 32 mph 1014.3mb 53f
12:00pm 25 26 mph 1014.7mb 53f
11:00am 22 24 mph 1015mb 52f
10:00am 18 20 mph 1014.7mb 52f
9:00am 14 15 mph 1015mb 53f
8:00am 13 14 mph 1014.6mb 52f
7:00am 14 15 mph 1014.2mb 52f
6:00am 15 16 mph 1013.7mb 52f
5:00am 14 16 mph 1013.5mb 52f
4:00am 14 15 mph 1013.3mb 52f
3:00am 20 22 mph 1012.9mb 52f
2:00am 26 28 mph 1012.6mb 53f
1:00am 28 30 mph 1012.8mb 53f
12:00am 29 30 mph 1013.2mb 53f
Tue 06/28 11:00pm 30 31 mph 1013.2mb 54f
10:00pm 26 29 mph 1013.6mb 54f
9:00pm 29 30 mph 1013.1mb 55f
8:00pm 23 24 mph 1013.7mb 55f
7:00pm 22 23 mph 1013.6mb 55f
6:00pm 18 21 mph 1013.8mb 55f
5:00pm 15 16 mph 1014.5mb 55f
4:00pm 13 14 mph 1015.1mb 55f
3:00pm 9 10 mph 1015.8mb 56f
2:00pm 10 11 mph 1016mb 56f
1:00pm 10 11 mph 1016mb 57f
12:00pm 9 10 mph 1015.9mb 57f
11:00am 5 6 mph 1015.8mb 59f
10:00am 3 5 mph 1015.6mb 59f
9:00am 5 6 mph 1015.6mb 57f
8:00am 8
mph
1015.1mb 57f
7:00am 3
mph
1014.7mb 58f
6:00am 3 5 mph 1014.3mb 57f
5:00am  -  1 mph 1013.8mb 57f
4:00am 2
mph
1013.5mb 57f
3:00am 2
mph
1013.3mb 57f
2:00am 7
mph
1013.1mb 56f
1:00am 8 9 mph 1013mb 56f
12:00am 9 10 mph 1013.1mb 56f
Mon 06/27 11:00pm 17 18 mph 1013mb 56f
10:00pm 17 18 mph 1013mb 56f
9:00pm 15 16 mph 1013.2mb 56f
8:00pm 14 15 mph 1013.4mb 56f
7:00pm 16
mph
1013.4mb 57f
6:00pm 14 15 mph 1013.6mb 57f
5:00pm 11
mph
1013.9mb 57f
4:00pm 14 15 mph 1013.9mb 57f
3:00pm 13 14 mph 1014.3mb 56f
2:00pm 9 10 mph 1014.6mb 57f
1:00pm 17 20 mph 1014.3mb 57f
12:00pm 8 9 mph 1014.8mb 58f
11:00am 3 5 mph 1014.9mb 57f
10:00am 9 10 mph 1014.5mb 55f
9:00am 10 11 mph 1014.5mb 54f
8:00am 8
mph
1014.4mb 54f
7:00am 23 24 mph 1013.2mb 54f
6:00am 22 24 mph 1013.1mb 55f
5:00am 16 17 mph 1013.2mb 55f
4:00am 8 11 mph 1013.8mb 58f
3:00am 10 13 mph 1013.1mb 55f
2:00am 6 7 mph 1013.2mb 55f
1:00am 9 10 mph 1013.1mb 55f
12:00am 13 14 mph 1013.1mb 54f
Sun 06/26 11:00pm 8 10 mph 1013.3mb 55f
10:00pm 26 29 mph 1012.4mb 56f
9:00pm 31 36 mph 1012mb 56f
8:00pm 30 32 mph 1012mb 57f
7:00pm 32 34 mph 1011.9mb 57f
6:00pm 31 33 mph 1012mb 56f
5:00pm 29 31 mph 1012.4mb 56f